createdAt,value
2019-01-19T00:02:11.511Z,3.10
2019-01-19T00:05:25.367Z,3.10
2019-01-19T00:08:38.173Z,3.10
2019-01-19T00:11:47.950Z,3.10
2019-01-19T00:14:41.790Z,3.00
2019-01-19T00:17:30.357Z,3.10
2019-01-19T00:20:27.936Z,3.00
2019-01-19T00:23:51.014Z,3.00
2019-01-19T00:26:55.016Z,3.00
2019-01-19T00:29:35.668Z,2.90
2019-01-19T00:32:16.644Z,2.90
2019-01-19T00:35:17.778Z,2.90
2019-01-19T00:37:56.998Z,2.90
2019-01-19T00:41:04.535Z,2.90
2019-01-19T00:44:02.423Z,2.90
2019-01-19T00:46:53.144Z,2.90
2019-01-19T00:49:26.371Z,2.90
2019-01-19T00:52:15.310Z,2.90
2019-01-19T00:55:03.854Z,2.90
2019-01-19T00:58:00.036Z,2.90
2019-01-19T01:00:35.660Z,2.90
2019-01-19T01:03:20.639Z,2.90
2019-01-19T01:06:00.982Z,2.90
2019-01-19T01:09:03.936Z,2.90
2019-01-19T01:11:47.629Z,2.80
2019-01-19T01:14:49.371Z,2.80
2019-01-19T01:17:40.971Z,2.80
2019-01-19T01:20:39.261Z,2.70
2019-01-19T01:23:43.435Z,2.70
2019-01-19T01:26:45.671Z,2.80
2019-01-19T01:29:51.527Z,2.80
2019-01-19T01:32:55.955Z,2.80
2019-01-19T01:36:10.023Z,2.80
2019-01-19T01:39:22.834Z,2.80
2019-01-19T01:42:25.943Z,2.80
2019-01-19T01:45:40.208Z,2.70
2019-01-19T01:48:39.096Z,2.60
2019-01-19T01:51:38.875Z,2.60
2019-01-19T01:54:45.851Z,2.60
2019-01-19T01:57:21.443Z,2.60
2019-01-19T02:00:21.918Z,2.50
2019-01-19T02:03:33.541Z,2.50
2019-01-19T02:06:32.213Z,2.30
2019-01-19T02:09:20.987Z,2.30
2019-01-19T02:12:44.038Z,2.40
2019-01-19T02:15:39.551Z,2.40
2019-01-19T02:18:27.891Z,2.50
2019-01-19T02:21:21.758Z,2.60
2019-01-19T02:24:13.531Z,2.70
2019-01-19T02:27:23.767Z,2.70
2019-01-19T02:30:30.459Z,2.50
2019-01-19T02:33:45.091Z,2.30
2019-01-19T02:36:52.021Z,2.40
2019-01-19T02:39:58.267Z,2.50
2019-01-19T02:43:10.987Z,2.60
2019-01-19T02:46:12.443Z,2.60
2019-01-19T02:49:09.520Z,2.50
2019-01-19T02:52:09.517Z,2.40
2019-01-19T02:55:08.778Z,2.40
2019-01-19T02:58:12.418Z,2.30
2019-01-19T03:01:15.238Z,2.30
2019-01-19T03:04:25.048Z,2.40
2019-01-19T03:07:35.047Z,2.30
2019-01-19T03:10:38.903Z,2.30
2019-01-19T03:13:20.923Z,2.20
2019-01-19T03:16:25.211Z,2.20
2019-01-19T03:19:31.000Z,2.40
2019-01-19T03:22:27.242Z,2.50
2019-01-19T03:25:19.049Z,2.60
2019-01-19T03:28:33.795Z,2.60
2019-01-19T03:31:51.162Z,2.50
2019-01-19T03:34:47.776Z,2.60
2019-01-19T03:37:52.228Z,2.50
2019-01-19T03:41:09.171Z,2.30
2019-01-19T03:44:14.538Z,2.40
2019-01-19T03:47:30.651Z,2.50
2019-01-19T03:50:28.218Z,2.60
2019-01-19T03:53:04.248Z,2.60
2019-01-19T03:56:13.998Z,2.50
2019-01-19T03:59:00.016Z,2.30
2019-01-19T04:02:04.445Z,2.10
2019-01-19T04:07:46.880Z,2.00
2019-01-19T04:10:38.582Z,2.00
2019-01-19T04:13:35.276Z,2.00
2019-01-19T04:16:30.747Z,2.00
2019-01-19T04:19:47.906Z,2.00
2019-01-19T04:22:40.697Z,2.00
2019-01-19T04:25:43.833Z,2.00
2019-01-19T04:28:15.159Z,2.10
2019-01-19T04:30:44.828Z,2.00
2019-01-19T04:33:14.467Z,1.90
2019-01-19T04:35:44.067Z,2.00
2019-01-19T04:38:13.652Z,2.20
2019-01-19T04:40:43.252Z,2.10
2019-01-19T04:43:12.837Z,2.10
2019-01-19T04:45:42.443Z,2.10
2019-01-19T04:48:12.096Z,2.10
2019-01-19T04:50:42.762Z,2.10
2019-01-19T04:53:12.361Z,2.10
2019-01-19T04:55:41.960Z,2.10
2019-01-19T04:58:11.517Z,2.10
2019-01-19T05:00:41.101Z,2.10
2019-01-19T05:03:10.688Z,2.10
2019-01-19T05:05:40.259Z,2.10
2019-01-19T05:08:09.840Z,2.00
2019-01-19T05:10:39.420Z,1.90
2019-01-19T05:13:09.307Z,1.80
2019-01-19T05:15:38.892Z,1.90
2019-01-19T05:18:08.745Z,1.90
2019-01-19T05:20:38.338Z,1.90
2019-01-19T05:23:07.967Z,1.90
2019-01-19T05:25:37.554Z,2.00
2019-01-19T05:28:07.472Z,2.00
2019-01-19T05:30:37.076Z,2.10
2019-01-19T05:33:06.667Z,2.10
2019-01-19T05:35:36.258Z,2.10
2019-01-19T05:38:05.930Z,2.10
2019-01-19T05:40:35.511Z,2.10
2019-01-19T05:43:05.307Z,2.00
2019-01-19T05:45:34.923Z,2.00
2019-01-19T05:48:04.956Z,2.00
2019-01-19T05:50:34.558Z,2.00
2019-01-19T05:53:04.301Z,1.90
2019-01-19T05:55:33.979Z,1.80
2019-01-19T05:58:03.576Z,1.90
2019-01-19T06:00:34.458Z,2.00
2019-01-19T06:03:04.843Z,2.10
2019-01-19T06:05:34.426Z,2.20
2019-01-19T06:08:04.081Z,2.10
2019-01-19T06:10:34.119Z,2.10
2019-01-19T06:13:03.719Z,2.10
2019-01-19T06:15:33.293Z,2.10
2019-01-19T06:18:03.299Z,2.20
2019-01-19T06:20:32.897Z,2.20
2019-01-19T06:23:02.539Z,2.20
2019-01-19T06:25:32.115Z,2.10
2019-01-19T06:28:01.783Z,2.00
2019-01-19T06:30:31.385Z,2.00
2019-01-19T06:33:00.972Z,1.90
2019-01-19T06:35:30.847Z,1.90
2019-01-19T06:38:01.592Z,2.00
2019-01-19T06:40:31.175Z,1.90
2019-01-19T06:43:00.799Z,1.90
2019-01-19T06:45:30.439Z,1.90
2019-01-19T06:48:00.051Z,1.90
2019-01-19T06:50:29.966Z,2.00
2019-01-19T06:52:59.589Z,2.00
2019-01-19T06:55:33.869Z,2.00
2019-01-19T06:58:03.510Z,2.00
2019-01-19T07:00:33.189Z,2.10
2019-01-19T07:03:02.932Z,2.00
2019-01-19T07:05:32.811Z,2.00
2019-01-19T07:08:02.422Z,2.10
2019-01-19T07:10:31.995Z,2.10
2019-01-19T07:13:01.644Z,2.10
2019-01-19T07:15:32.218Z,2.10
2019-01-19T07:18:01.844Z,2.10
2019-01-19T07:20:31.542Z,2.10
2019-01-19T07:23:01.232Z,2.10
2019-01-19T07:25:30.832Z,2.00
2019-01-19T07:28:00.710Z,2.00
2019-01-19T07:30:30.655Z,2.10
2019-01-19T07:33:00.274Z,2.10
2019-01-19T07:35:29.937Z,2.10
2019-01-19T07:37:59.538Z,2.00
2019-01-19T07:40:29.192Z,2.10
2019-01-19T07:43:06.565Z,2.10
2019-01-19T07:45:37.119Z,2.10
2019-01-19T07:48:07.391Z,2.00
2019-01-19T07:50:36.996Z,2.00
2019-01-19T07:53:06.624Z,2.00
2019-01-19T07:55:36.286Z,2.10
2019-01-19T07:58:06.050Z,2.10
2019-01-19T08:00:35.642Z,2.10
2019-01-19T08:03:05.243Z,2.20
2019-01-19T08:05:34.929Z,2.10
2019-01-19T08:08:04.707Z,2.00
2019-01-19T08:10:34.282Z,2.00
2019-01-19T08:13:04.410Z,2.00
2019-01-19T08:15:34.239Z,2.10
2019-01-19T08:18:03.846Z,2.20
2019-01-19T08:20:33.438Z,2.30
2019-01-19T08:23:03.043Z,2.40
2019-01-19T08:25:32.625Z,2.40
2019-01-19T08:28:02.210Z,2.40
2019-01-19T08:30:32.062Z,2.40
2019-01-19T08:33:01.644Z,2.40
2019-01-19T08:35:31.931Z,2.50
2019-01-19T08:38:01.563Z,2.50
2019-01-19T08:40:36.089Z,2.50
2019-01-19T08:43:26.967Z,2.50
2019-01-19T08:45:56.557Z,2.50
2019-01-19T08:48:26.511Z,2.40
2019-01-19T08:50:56.130Z,2.50
2019-01-19T08:53:25.735Z,2.50
2019-01-19T08:55:55.407Z,2.40
2019-01-19T08:58:25.245Z,2.50
2019-01-19T09:00:55.140Z,2.40
2019-01-19T09:03:24.721Z,2.40
2019-01-19T09:05:54.320Z,2.40
2019-01-19T09:08:23.927Z,2.50
2019-01-19T09:10:53.505Z,2.60
2019-01-19T09:13:23.111Z,2.60
2019-01-19T09:15:56.511Z,2.70
2019-01-19T09:18:26.126Z,2.80
2019-01-19T09:20:55.708Z,2.80
2019-01-19T09:23:29.362Z,2.80
2019-01-19T09:25:58.954Z,2.90
2019-01-19T09:28:28.552Z,2.90
2019-01-19T09:30:58.231Z,2.90
2019-01-19T09:33:28.082Z,2.90
2019-01-19T09:35:57.687Z,2.80
2019-01-19T09:38:27.291Z,2.80
2019-01-19T09:40:56.944Z,2.80
2019-01-19T09:43:26.531Z,2.70
2019-01-19T09:45:56.119Z,2.70
2019-01-19T09:48:25.705Z,2.70
2019-01-19T09:50:55.349Z,2.80
2019-01-19T09:53:24.958Z,2.80
2019-01-19T09:55:54.540Z,2.80
2019-01-19T09:58:24.631Z,2.80
2019-01-19T10:00:54.292Z,2.70
2019-01-19T10:03:23.979Z,2.70
2019-01-19T10:05:53.631Z,2.80
2019-01-19T10:08:23.246Z,2.80
2019-01-19T10:10:52.909Z,2.90
2019-01-19T10:13:22.577Z,3.00
2019-01-19T10:15:52.520Z,3.10
2019-01-19T10:18:22.519Z,3.10
2019-01-19T10:20:53.050Z,3.10
2019-01-19T10:23:22.672Z,3.00
2019-01-19T10:25:53.658Z,3.00
2019-01-19T10:28:23.586Z,3.00
2019-01-19T10:30:53.266Z,3.00
2019-01-19T10:33:22.923Z,3.00
2019-01-19T10:35:52.504Z,3.10
2019-01-19T10:38:22.091Z,3.20
2019-01-19T10:40:52.638Z,3.10
2019-01-19T10:43:22.232Z,3.10
2019-01-19T10:45:51.831Z,3.10
2019-01-19T10:48:22.410Z,3.10
2019-01-19T10:50:52.024Z,3.10
2019-01-19T10:53:21.630Z,3.10
2019-01-19T10:55:51.272Z,3.10
2019-01-19T10:58:21.255Z,3.20
2019-01-19T11:00:52.070Z,3.20
2019-01-19T11:03:21.866Z,3.20
2019-01-19T11:05:52.255Z,3.20
2019-01-19T11:08:22.099Z,3.20
2019-01-19T11:10:51.772Z,3.30
2019-01-19T11:13:21.381Z,3.30
2019-01-19T11:15:50.970Z,3.40
2019-01-19T11:18:20.571Z,3.40
2019-01-19T11:20:50.174Z,3.40
2019-01-19T11:23:19.843Z,3.40
2019-01-19T11:25:49.450Z,3.40
2019-01-19T11:28:19.039Z,3.40
2019-01-19T11:30:48.628Z,3.40
2019-01-19T11:33:18.256Z,3.50
2019-01-19T11:35:48.145Z,3.60
2019-01-19T11:38:20.199Z,3.70
2019-01-19T11:40:49.099Z,3.70
2019-01-19T11:43:18.699Z,3.70
2019-01-19T11:45:48.715Z,3.70
2019-01-19T11:48:18.314Z,3.70
2019-01-19T11:50:47.899Z,3.70
2019-01-19T11:53:17.650Z,3.80
2019-01-19T11:55:47.242Z,3.90
2019-01-19T11:58:16.867Z,4.00
2019-01-19T12:00:46.471Z,4.10
2019-01-19T12:03:16.081Z,4.10
2019-01-19T12:05:45.687Z,4.20
2019-01-19T12:08:19.431Z,4.10
2019-01-19T12:10:46.635Z,4.10
2019-01-19T12:13:16.239Z,4.20
2019-01-19T12:15:45.848Z,4.20
2019-01-19T12:18:15.442Z,4.20
2019-01-19T12:20:47.248Z,4.30
2019-01-19T12:23:17.084Z,4.30
2019-01-19T12:25:46.759Z,4.30
2019-01-19T12:28:16.472Z,4.40
2019-01-19T12:30:46.107Z,4.30
2019-01-19T12:33:16.091Z,4.30
2019-01-19T12:35:45.703Z,4.20
2019-01-19T12:38:15.291Z,4.20
2019-01-19T12:40:45.216Z,4.30
2019-01-19T12:43:20.549Z,4.20
2019-01-19T12:45:58.560Z,4.30
2019-01-19T12:48:28.204Z,4.30
2019-01-19T12:50:57.800Z,4.40
2019-01-19T12:53:27.734Z,4.40
2019-01-19T12:55:57.329Z,4.50
2019-01-19T12:58:26.910Z,4.50
2019-01-19T13:00:56.600Z,4.60
2019-01-19T13:03:26.284Z,4.50
2019-01-19T13:06:22.623Z,4.50
2019-01-19T13:08:53.526Z,4.60
2019-01-19T13:12:01.398Z,4.70
2019-01-19T13:14:32.355Z,4.60
2019-01-19T13:17:16.603Z,4.60
2019-01-19T13:20:34.007Z,4.60
2019-01-19T13:23:34.419Z,4.60
2019-01-19T13:26:34.689Z,4.50
2019-01-19T13:29:28.002Z,4.40
2019-01-19T13:32:15.878Z,4.50
2019-01-19T13:35:38.999Z,4.50
2019-01-19T13:38:28.715Z,4.60
2019-01-19T13:41:34.676Z,4.60
2019-01-19T13:44:44.258Z,4.70
2019-01-19T13:47:46.592Z,4.70
2019-01-19T13:50:38.551Z,4.70
2019-01-19T13:53:45.410Z,4.60
2019-01-19T13:56:40.430Z,4.50
2019-01-19T13:59:38.938Z,4.50
2019-01-19T14:02:39.519Z,4.60
2019-01-19T14:05:47.599Z,4.60
2019-01-19T14:09:05.133Z,4.50
2019-01-19T14:11:59.115Z,4.50
2019-01-19T14:15:00.590Z,4.60
2019-01-19T14:17:56.023Z,4.50
2019-01-19T14:21:14.759Z,4.50
2019-01-19T14:24:13.776Z,4.50
2019-01-19T14:27:25.032Z,4.40
2019-01-19T14:30:32.154Z,4.40
2019-01-19T14:33:22.975Z,4.40
2019-01-19T14:36:27.439Z,4.40
2019-01-19T14:39:23.894Z,4.40
2019-01-19T14:42:18.908Z,4.40
2019-01-19T14:45:26.465Z,4.40
2019-01-19T14:48:39.243Z,4.40
2019-01-19T14:51:31.149Z,4.30
2019-01-19T14:54:45.636Z,4.30
2019-01-19T14:57:59.252Z,4.30
2019-01-19T15:01:09.680Z,4.30
2019-01-19T15:04:23.911Z,4.30
2019-01-19T15:07:29.736Z,4.30
2019-01-19T15:10:35.543Z,4.20
2019-01-19T15:13:41.489Z,4.20
2019-01-19T15:16:51.139Z,4.20
2019-01-19T15:19:41.285Z,4.10
2019-01-19T15:22:28.884Z,4.20
2019-01-19T15:25:34.756Z,4.10
2019-01-19T15:28:32.935Z,4.10
2019-01-19T15:31:42.154Z,4.00
2019-01-19T15:34:48.040Z,4.00
2019-01-19T15:38:06.034Z,3.90
2019-01-19T15:41:23.921Z,4.00
2019-01-19T15:44:37.782Z,4.00
2019-01-19T15:47:23.650Z,4.00
2019-01-19T15:50:34.825Z,4.00
2019-01-19T15:53:33.315Z,3.90
2019-01-19T15:56:49.597Z,3.90
2019-01-19T15:59:35.931Z,3.90
2019-01-19T16:02:45.868Z,3.80
2019-01-19T16:05:39.199Z,3.80
2019-01-19T16:08:42.547Z,3.80
2019-01-19T16:11:56.683Z,3.80
2019-01-19T16:15:09.491Z,3.90
2019-01-19T16:18:22.534Z,3.90
2019-01-19T16:21:05.237Z,3.90
2019-01-19T16:24:01.898Z,3.90
2019-01-19T16:26:54.035Z,3.90
2019-01-19T16:29:58.754Z,3.80
2019-01-19T16:33:03.751Z,3.80
2019-01-19T16:36:01.313Z,3.80
2019-01-19T16:39:36.834Z,3.80
2019-01-19T16:42:39.412Z,3.70
2019-01-19T16:45:59.759Z,3.70
2019-01-19T16:48:51.423Z,3.70
2019-01-19T16:51:57.577Z,3.70
2019-01-19T16:54:51.443Z,3.70
2019-01-19T16:58:02.864Z,3.70
2019-01-19T17:01:08.427Z,3.70
2019-01-19T17:04:11.866Z,3.80
2019-01-19T17:06:55.425Z,3.80
2019-01-19T17:09:34.147Z,3.70
2019-01-19T17:12:45.079Z,3.70
2019-01-19T17:15:33.256Z,3.70
2019-01-19T17:18:14.232Z,3.70
2019-01-19T17:21:33.175Z,3.60
2019-01-19T17:24:50.331Z,3.60
2019-01-19T17:27:49.316Z,3.40
2019-01-19T17:30:55.777Z,3.40
2019-01-19T17:33:58.247Z,3.30
2019-01-19T17:37:05.648Z,3.30
2019-01-19T17:40:00.394Z,3.40
2019-01-19T17:43:11.271Z,3.30
2019-01-19T17:46:30.052Z,3.30
2019-01-19T17:49:29.450Z,3.20
2019-01-19T17:52:24.107Z,3.20
2019-01-19T17:55:59.467Z,3.20
2019-01-19T17:59:20.886Z,3.20
2019-01-19T18:02:18.507Z,3.20
2019-01-19T18:05:31.343Z,3.10
2019-01-19T18:08:43.168Z,3.10
2019-01-19T18:11:52.583Z,3.00
2019-01-19T18:15:24.588Z,3.10
2019-01-19T18:18:18.375Z,3.10
2019-01-19T18:21:35.231Z,3.10
2019-01-19T18:24:26.086Z,3.10
2019-01-19T18:27:08.742Z,3.10
2019-01-19T18:30:21.299Z,3.00
2019-01-19T18:33:02.056Z,3.00
2019-01-19T18:36:00.435Z,3.00
2019-01-19T18:39:20.612Z,3.10
2019-01-19T18:42:27.323Z,3.10
2019-01-19T18:45:25.993Z,3.00
2019-01-19T18:48:09.945Z,3.00
2019-01-19T18:51:15.839Z,2.90
2019-01-19T18:54:30.464Z,2.90
2019-01-19T19:00:17.617Z,2.80
2019-01-19T19:03:25.046Z,2.70
2019-01-19T19:06:11.371Z,2.60
2019-01-19T19:09:21.239Z,2.60
2019-01-19T19:12:20.339Z,2.70
2019-01-19T19:15:09.500Z,2.60
2019-01-19T19:18:22.901Z,2.50
2019-01-19T19:21:16.481Z,2.50
2019-01-19T19:23:56.251Z,2.60
2019-01-19T19:27:06.177Z,2.50
2019-01-19T19:30:14.465Z,2.50
2019-01-19T19:33:05.918Z,2.50
2019-01-19T19:36:11.968Z,2.50
2019-01-19T19:39:04.718Z,2.50
2019-01-19T19:42:12.852Z,2.50
2019-01-19T19:44:56.278Z,2.50
2019-01-19T19:48:22.719Z,2.40
2019-01-19T19:51:17.630Z,2.40
2019-01-19T19:53:47.216Z,2.40
2019-01-19T19:56:15.550Z,2.40
2019-01-19T19:58:45.304Z,2.40
2019-01-19T20:01:15.228Z,2.30
2019-01-19T20:03:44.883Z,2.30
2019-01-19T20:06:14.736Z,2.40
2019-01-19T20:08:44.459Z,2.40
2019-01-19T20:11:15.179Z,2.30
2019-01-19T20:13:44.751Z,2.40
2019-01-19T20:16:14.326Z,2.30
2019-01-19T20:18:43.911Z,2.30
2019-01-19T20:21:13.579Z,2.30
2019-01-19T20:23:43.265Z,2.30
2019-01-19T20:26:12.902Z,2.30
2019-01-19T20:28:42.511Z,2.30
2019-01-19T20:31:12.084Z,2.30
2019-01-19T20:33:43.133Z,2.30
2019-01-19T20:36:12.718Z,2.30
2019-01-19T20:38:43.484Z,2.30
2019-01-19T20:41:13.059Z,2.30
2019-01-19T20:43:43.750Z,2.20
2019-01-19T20:46:13.367Z,2.20
2019-01-19T20:48:43.160Z,2.10
2019-01-19T20:51:13.305Z,2.10
2019-01-19T20:53:43.053Z,2.10
2019-01-19T20:56:12.630Z,2.10
2019-01-19T20:58:42.290Z,2.10
2019-01-19T21:01:12.128Z,2.10
2019-01-19T21:03:41.939Z,2.00
2019-01-19T21:06:11.742Z,2.00
2019-01-19T21:08:41.807Z,2.00
2019-01-19T21:11:11.528Z,2.00
2019-01-19T21:13:42.311Z,2.00
2019-01-19T21:16:12.219Z,2.00
2019-01-19T21:18:41.957Z,1.90
2019-01-19T21:21:11.739Z,1.90
2019-01-19T21:23:41.465Z,1.90
2019-01-19T21:26:11.246Z,1.90
2019-01-19T21:28:40.964Z,2.00
2019-01-19T21:31:10.691Z,1.90
2019-01-19T21:33:40.411Z,2.00
2019-01-19T21:36:10.192Z,1.90
2019-01-19T21:38:40.253Z,2.00
2019-01-19T21:41:10.023Z,2.00
2019-01-19T21:43:39.727Z,2.00
2019-01-19T21:46:09.551Z,2.00
2019-01-19T21:48:39.374Z,1.90
2019-01-19T21:51:09.463Z,2.00
2019-01-19T21:53:39.223Z,2.00
2019-01-19T21:56:08.955Z,2.10
2019-01-19T21:58:38.668Z,2.00
2019-01-19T22:01:08.683Z,2.00
2019-01-19T22:03:38.408Z,2.00
2019-01-19T22:06:08.118Z,1.90
2019-01-19T22:08:37.841Z,1.90
2019-01-19T22:11:07.544Z,1.90
2019-01-19T22:13:37.391Z,2.00
2019-01-19T22:16:07.407Z,2.00
2019-01-19T22:18:37.448Z,1.90
2019-01-19T22:21:07.206Z,1.90
2019-01-19T22:23:36.925Z,1.90
2019-01-19T22:26:08.663Z,1.90
2019-01-19T22:28:38.384Z,2.00
2019-01-19T22:31:08.092Z,2.00
2019-01-19T22:33:37.896Z,1.90
2019-01-19T22:36:07.607Z,1.90
2019-01-19T22:38:37.323Z,1.80
2019-01-19T22:41:07.183Z,1.80
2019-01-19T22:43:36.917Z,1.80
2019-01-19T22:46:06.679Z,1.80
2019-01-19T22:48:36.396Z,1.70
2019-01-19T22:51:11.194Z,1.70
2019-01-19T22:53:37.540Z,1.60
2019-01-19T22:56:07.251Z,1.70
2019-01-19T22:58:36.964Z,1.60
2019-01-19T23:01:26.954Z,1.70
2019-01-19T23:03:56.770Z,1.70
2019-01-19T23:06:26.451Z,1.60
2019-01-19T23:08:56.332Z,1.60
2019-01-19T23:11:26.043Z,1.60
2019-01-19T23:13:56.568Z,1.60
2019-01-19T23:16:26.260Z,1.50
2019-01-19T23:18:56.059Z,1.60
2019-01-19T23:21:25.799Z,1.60
2019-01-19T23:23:56.494Z,1.60
2019-01-19T23:26:26.580Z,1.50
2019-01-19T23:28:56.264Z,1.50
2019-01-19T23:31:25.975Z,1.50
2019-01-19T23:33:55.694Z,1.50
2019-01-19T23:36:25.398Z,1.50
2019-01-19T23:38:55.184Z,1.50
2019-01-19T23:41:24.879Z,1.40
2019-01-19T23:43:54.572Z,1.40
2019-01-19T23:46:24.257Z,1.30
2019-01-19T23:48:54.263Z,1.30
2019-01-19T23:51:23.983Z,1.30
2019-01-19T23:53:53.995Z,1.30
2019-01-19T23:56:23.772Z,1.30
2019-01-19T23:58:53.472Z,1.30
